Berisso, Argentina
Current Conditions -  °F | °C
As of 3:10 PM on Friday 21 Nov 2014 (Local Time) from SABE Reporting Station
Light Rain Light Rain  
Wind Chill: 66°   Ceiling: 2500
Heat Index: 66°   Visibility: 3mi
Dew Point: 59°   Wind: 17mph
Humidity: 78%   Direction: 170°S
Pressure: 29.88"   Gusts: NA
Location:  34.87°S, 57.88°W
Report Text: SABE 211810Z 17015KT 5000 -RA FEW015 BKN025 OVC050 19/15 Q1012
Loading
Personal Weather Stations






























Interactive Weather Map New forecast layout! Learn more

10-Day Weather Forecast

Advertisements
Track Severe Weather on mobile